Terminal Aerodrome Forecast
Issued by NWS

Home | Current Version | Previous Version | Text Only | Print | Product List | Glossary Off
Versions: 1 2 3 4 5 6 7 8 9 10 11 12 13

000
FTUS45 KGGW 010500
TAFSDY
TAF
KSDY 010520Z 0106/0206 27011KT P6SM BKN045
     FM010800 29011KT P6SM VCSH BKN014
     FM011800 31009KT P6SM SCT028
     FM020000 VRB04KT P6SM FEW045
      AMD LTD TO CLD VIS AND WIND=

USA.gov is the U.S. government's official web portal to all federal, state and local government web resources and services.